sensor_id;sensor_type;location;lat;lon;timestamp;P1;durP1;ratioP1;P2;durP2;ratioP2
48122;SDS011;33907;47.426;18.906;2023-04-06T00:01:51;11.77;;;6.60;;
48122;SDS011;33907;47.426;18.906;2023-04-06T00:04:19;10.05;;;6.53;;
48122;SDS011;33907;47.426;18.906;2023-04-06T00:06:46;10.38;;;5.93;;
48122;SDS011;33907;47.426;18.906;2023-04-06T00:09:14;10.70;;;5.82;;
48122;SDS011;33907;47.426;18.906;2023-04-06T00:11:41;10.48;;;5.55;;
48122;SDS011;33907;47.426;18.906;2023-04-06T00:14:09;11.93;;;6.07;;
48122;SDS011;33907;47.426;18.906;2023-04-06T00:16:36;10.02;;;5.78;;
48122;SDS011;33907;47.426;18.906;2023-04-06T00:19:04;9.85;;;5.80;;
48122;SDS011;33907;47.426;18.906;2023-04-06T00:21:31;11.12;;;5.15;;
48122;SDS011;33907;47.426;18.906;2023-04-06T00:23:59;12.07;;;7.32;;
48122;SDS011;33907;47.426;18.906;2023-04-06T00:26:27;12.00;;;5.85;;
48122;SDS011;33907;47.426;18.906;2023-04-06T00:28:55;12.63;;;6.47;;
48122;SDS011;33907;47.426;18.906;2023-04-06T00:31:22;12.80;;;6.28;;
48122;SDS011;33907;47.426;18.906;2023-04-06T00:33:50;12.88;;;6.32;;
48122;SDS011;33907;47.426;18.906;2023-04-06T00:36:18;12.48;;;7.37;;
48122;SDS011;33907;47.426;18.906;2023-04-06T00:38:45;10.85;;;6.25;;
48122;SDS011;33907;47.426;18.906;2023-04-06T00:41:13;10.55;;;6.05;;
48122;SDS011;33907;47.426;18.906;2023-04-06T00:43:41;12.50;;;6.45;;
48122;SDS011;33907;47.426;18.906;2023-04-06T00:46:08;10.05;;;6.30;;
48122;SDS011;33907;47.426;18.906;2023-04-06T00:48:36;15.07;;;7.20;;
48122;SDS011;33907;47.426;18.906;2023-04-06T00:51:03;13.13;;;6.72;;
48122;SDS011;33907;47.426;18.906;2023-04-06T00:53:31;12.60;;;6.90;;
48122;SDS011;33907;47.426;18.906;2023-04-06T00:55:59;12.05;;;6.43;;
48122;SDS011;33907;47.426;18.906;2023-04-06T00:58:28;14.95;;;6.62;;
48122;SDS011;33907;47.426;18.906;2023-04-06T01:01:00;15.00;;;8.18;;
48122;SDS011;33907;47.426;18.906;2023-04-06T01:03:28;11.55;;;6.85;;
48122;SDS011;33907;47.426;18.906;2023-04-06T01:05:55;12.77;;;7.47;;
48122;SDS011;33907;47.426;18.906;2023-04-06T01:08:25;9.52;;;6.47;;
48122;SDS011;33907;47.426;18.906;2023-04-06T01:10:54;10.82;;;7.03;;
48122;SDS011;33907;47.426;18.906;2023-04-06T01:13:22;11.90;;;7.18;;
48122;SDS011;33907;47.426;18.906;2023-04-06T01:15:50;10.48;;;6.70;;
48122;SDS011;33907;47.426;18.906;2023-04-06T01:18:19;15.55;;;7.25;;
48122;SDS011;33907;47.426;18.906;2023-04-06T01:20:53;12.77;;;7.37;;
48122;SDS011;33907;47.426;18.906;2023-04-06T01:23:23;12.15;;;7.45;;
48122;SDS011;33907;47.426;18.906;2023-04-06T01:25:50;14.15;;;7.05;;
48122;SDS011;33907;47.426;18.906;2023-04-06T01:28:18;13.52;;;7.85;;
48122;SDS011;33907;47.426;18.906;2023-04-06T01:30:46;11.60;;;6.97;;
48122;SDS011;33907;47.426;18.906;2023-04-06T01:33:14;13.70;;;6.87;;
48122;SDS011;33907;47.426;18.906;2023-04-06T01:35:43;13.02;;;7.53;;
48122;SDS011;33907;47.426;18.906;2023-04-06T01:38:10;12.95;;;6.45;;
48122;SDS011;33907;47.426;18.906;2023-04-06T01:40:38;13.43;;;7.35;;
48122;SDS011;33907;47.426;18.906;2023-04-06T01:43:05;15.80;;;8.23;;
48122;SDS011;33907;47.426;18.906;2023-04-06T01:45:34;12.50;;;7.68;;
48122;SDS011;33907;47.426;18.906;2023-04-06T01:48:03;15.30;;;7.80;;
48122;SDS011;33907;47.426;18.906;2023-04-06T01:50:30;12.82;;;7.87;;
48122;SDS011;33907;47.426;18.906;2023-04-06T01:52:58;13.98;;;8.02;;
48122;SDS011;33907;47.426;18.906;2023-04-06T01:55:26;15.25;;;7.22;;
48122;SDS011;33907;47.426;18.906;2023-04-06T01:57:54;14.40;;;7.22;;
48122;SDS011;33907;47.426;18.906;2023-04-06T02:00:25;12.37;;;7.43;;
48122;SDS011;33907;47.426;18.906;2023-04-06T02:02:52;13.25;;;8.25;;
48122;SDS011;33907;47.426;18.906;2023-04-06T02:05:20;12.93;;;7.68;;
48122;SDS011;33907;47.426;18.906;2023-04-06T02:07:49;15.52;;;9.20;;
48122;SDS011;33907;47.426;18.906;2023-04-06T02:10:18;13.57;;;8.32;;
48122;SDS011;33907;47.426;18.906;2023-04-06T02:12:45;16.15;;;8.88;;
48122;SDS011;33907;47.426;18.906;2023-04-06T02:15:13;14.40;;;8.80;;
48122;SDS011;33907;47.426;18.906;2023-04-06T02:17:42;13.48;;;8.27;;
48122;SDS011;33907;47.426;18.906;2023-04-06T02:20:09;13.95;;;9.55;;
48122;SDS011;33907;47.426;18.906;2023-04-06T02:22:37;16.05;;;9.25;;
48122;SDS011;33907;47.426;18.906;2023-04-06T02:25:04;13.55;;;8.93;;
48122;SDS011;33907;47.426;18.906;2023-04-06T02:27:32;16.33;;;9.57;;
48122;SDS011;33907;47.426;18.906;2023-04-06T02:30:00;14.02;;;8.98;;
48122;SDS011;33907;47.426;18.906;2023-04-06T02:32:28;15.57;;;8.70;;
48122;SDS011;33907;47.426;18.906;2023-04-06T02:34:56;14.48;;;8.00;;
48122;SDS011;33907;47.426;18.906;2023-04-06T02:37:24;14.87;;;8.90;;
48122;SDS011;33907;47.426;18.906;2023-04-06T02:39:54;15.75;;;9.90;;
48122;SDS011;33907;47.426;18.906;2023-04-06T02:42:22;16.65;;;10.18;;
48122;SDS011;33907;47.426;18.906;2023-04-06T02:44:51;23.77;;;10.25;;
48122;SDS011;33907;47.426;18.906;2023-04-06T02:47:20;14.25;;;8.90;;
48122;SDS011;33907;47.426;18.906;2023-04-06T02:49:48;17.35;;;9.32;;
48122;SDS011;33907;47.426;18.906;2023-04-06T02:52:16;16.95;;;8.50;;
48122;SDS011;33907;47.426;18.906;2023-04-06T02:54:45;17.17;;;9.80;;
48122;SDS011;33907;47.426;18.906;2023-04-06T02:57:12;15.10;;;9.18;;
48122;SDS011;33907;47.426;18.906;2023-04-06T02:59:40;13.95;;;9.15;;
48122;SDS011;33907;47.426;18.906;2023-04-06T03:02:08;16.55;;;8.55;;
48122;SDS011;33907;47.426;18.906;2023-04-06T03:04:36;16.37;;;8.07;;
48122;SDS011;33907;47.426;18.906;2023-04-06T03:07:04;16.15;;;9.00;;
48122;SDS011;33907;47.426;18.906;2023-04-06T03:09:32;17.60;;;8.90;;
48122;SDS011;33907;47.426;18.906;2023-04-06T03:11:59;15.52;;;9.55;;
48122;SDS011;33907;47.426;18.906;2023-04-06T03:14:29;16.80;;;9.30;;
48122;SDS011;33907;47.426;18.906;2023-04-06T03:16:56;18.70;;;9.70;;
48122;SDS011;33907;47.426;18.906;2023-04-06T03:19:24;15.68;;;9.40;;
48122;SDS011;33907;47.426;18.906;2023-04-06T03:21:53;14.95;;;8.93;;
48122;SDS011;33907;47.426;18.906;2023-04-06T03:24:21;13.62;;;7.62;;
48122;SDS011;33907;47.426;18.906;2023-04-06T03:26:48;13.68;;;7.90;;
48122;SDS011;33907;47.426;18.906;2023-04-06T03:29:16;16.35;;;9.45;;
48122;SDS011;33907;47.426;18.906;2023-04-06T03:31:43;17.62;;;9.90;;
48122;SDS011;33907;47.426;18.906;2023-04-06T03:34:12;18.30;;;8.85;;
48122;SDS011;33907;47.426;18.906;2023-04-06T03:36:40;20.12;;;9.20;;
48122;SDS011;33907;47.426;18.906;2023-04-06T03:39:07;19.58;;;9.50;;
48122;SDS011;33907;47.426;18.906;2023-04-06T03:41:35;16.42;;;9.27;;
48122;SDS011;33907;47.426;18.906;2023-04-06T03:44:04;15.90;;;9.05;;
48122;SDS011;33907;47.426;18.906;2023-04-06T03:46:32;17.80;;;8.20;;
48122;SDS011;33907;47.426;18.906;2023-04-06T03:49:00;18.73;;;8.98;;
48122;SDS011;33907;47.426;18.906;2023-04-06T03:51:28;17.85;;;9.82;;
48122;SDS011;33907;47.426;18.906;2023-04-06T03:53:56;13.65;;;9.05;;
48122;SDS011;33907;47.426;18.906;2023-04-06T03:56:23;17.90;;;9.18;;
48122;SDS011;33907;47.426;18.906;2023-04-06T03:58:53;20.00;;;9.70;;
48122;SDS011;33907;47.426;18.906;2023-04-06T04:01:21;18.27;;;10.70;;
48122;SDS011;33907;47.426;18.906;2023-04-06T04:03:49;15.45;;;9.15;;
48122;SDS011;33907;47.426;18.906;2023-04-06T04:06:18;15.73;;;9.25;;
48122;SDS011;33907;47.426;18.906;2023-04-06T04:08:47;16.15;;;9.55;;
48122;SDS011;33907;47.426;18.906;2023-04-06T04:11:14;20.45;;;9.68;;
48122;SDS011;33907;47.426;18.906;2023-04-06T04:13:44;15.88;;;9.90;;
48122;SDS011;33907;47.426;18.906;2023-04-06T04:16:13;16.60;;;9.35;;
48122;SDS011;33907;47.426;18.906;2023-04-06T04:18:41;17.40;;;9.40;;
48122;SDS011;33907;47.426;18.906;2023-04-06T04:21:10;16.27;;;9.13;;
48122;SDS011;33907;47.426;18.906;2023-04-06T04:23:38;16.10;;;10.02;;
48122;SDS011;33907;47.426;18.906;2023-04-06T04:26:05;15.73;;;9.85;;
48122;SDS011;33907;47.426;18.906;2023-04-06T04:28:34;14.23;;;8.98;;
48122;SDS011;33907;47.426;18.906;2023-04-06T04:31:01;18.67;;;9.23;;
48122;SDS011;33907;47.426;18.906;2023-04-06T04:33:30;17.27;;;10.43;;
48122;SDS011;33907;47.426;18.906;2023-04-06T04:35:57;19.05;;;10.32;;
48122;SDS011;33907;47.426;18.906;2023-04-06T04:38:26;19.10;;;9.98;;
48122;SDS011;33907;47.426;18.906;2023-04-06T04:40:54;18.60;;;10.00;;
48122;SDS011;33907;47.426;18.906;2023-04-06T04:43:22;18.05;;;9.88;;
48122;SDS011;33907;47.426;18.906;2023-04-06T04:45:49;18.40;;;10.13;;
48122;SDS011;33907;47.426;18.906;2023-04-06T04:48:18;23.92;;;11.85;;
48122;SDS011;33907;47.426;18.906;2023-04-06T04:50:46;19.42;;;10.85;;
48122;SDS011;33907;47.426;18.906;2023-04-06T04:53:14;14.13;;;9.88;;
48122;SDS011;33907;47.426;18.906;2023-04-06T04:55:44;18.65;;;10.50;;
48122;SDS011;33907;47.426;18.906;2023-04-06T04:58:12;18.80;;;10.55;;
48122;SDS011;33907;47.426;18.906;2023-04-06T05:00:44;21.90;;;10.27;;
48122;SDS011;33907;47.426;18.906;2023-04-06T05:03:14;19.33;;;10.27;;
48122;SDS011;33907;47.426;18.906;2023-04-06T05:05:54;19.10;;;10.40;;
48122;SDS011;33907;47.426;18.906;2023-04-06T05:08:23;19.48;;;10.52;;
48122;SDS011;33907;47.426;18.906;2023-04-06T05:10:50;19.52;;;11.38;;
48122;SDS011;33907;47.426;18.906;2023-04-06T05:13:18;22.80;;;10.65;;
48122;SDS011;33907;47.426;18.906;2023-04-06T05:15:47;26.40;;;12.75;;
48122;SDS011;33907;47.426;18.906;2023-04-06T05:18:17;22.80;;;12.15;;
48122;SDS011;33907;47.426;18.906;2023-04-06T05:20:45;23.02;;;10.75;;
48122;SDS011;33907;47.426;18.906;2023-04-06T05:23:12;23.92;;;12.77;;
48122;SDS011;33907;47.426;18.906;2023-04-06T05:25:40;21.33;;;12.48;;
48122;SDS011;33907;47.426;18.906;2023-04-06T05:28:10;20.20;;;11.88;;
48122;SDS011;33907;47.426;18.906;2023-04-06T05:30:41;23.10;;;12.02;;
48122;SDS011;33907;47.426;18.906;2023-04-06T05:33:11;22.45;;;12.37;;
48122;SDS011;33907;47.426;18.906;2023-04-06T05:35:41;20.65;;;11.50;;
48122;SDS011;33907;47.426;18.906;2023-04-06T05:38:09;20.30;;;11.68;;
48122;SDS011;33907;47.426;18.906;2023-04-06T05:40:40;18.65;;;10.88;;
48122;SDS011;33907;47.426;18.906;2023-04-06T05:43:09;21.42;;;12.00;;
48122;SDS011;33907;47.426;18.906;2023-04-06T05:45:38;16.92;;;11.25;;
48122;SDS011;33907;47.426;18.906;2023-04-06T05:48:05;22.62;;;11.57;;
48122;SDS011;33907;47.426;18.906;2023-04-06T05:50:33;19.33;;;11.18;;
48122;SDS011;33907;47.426;18.906;2023-04-06T05:53:00;20.95;;;11.95;;
48122;SDS011;33907;47.426;18.906;2023-04-06T05:55:31;18.37;;;11.18;;
48122;SDS011;33907;47.426;18.906;2023-04-06T05:58:00;19.75;;;11.80;;
48122;SDS011;33907;47.426;18.906;2023-04-06T06:00:28;26.00;;;13.07;;
48122;SDS011;33907;47.426;18.906;2023-04-06T06:02:56;22.90;;;13.23;;
48122;SDS011;33907;47.426;18.906;2023-04-06T06:05:25;20.55;;;12.52;;
48122;SDS011;33907;47.426;18.906;2023-04-06T06:07:53;32.28;;;18.20;;
48122;SDS011;33907;47.426;18.906;2023-04-06T06:10:21;26.70;;;15.55;;
48122;SDS011;33907;47.426;18.906;2023-04-06T06:12:49;23.20;;;12.77;;
48122;SDS011;33907;47.426;18.906;2023-04-06T06:15:17;20.40;;;12.18;;
48122;SDS011;33907;47.426;18.906;2023-04-06T06:17:45;22.27;;;11.57;;
48122;SDS011;33907;47.426;18.906;2023-04-06T06:20:12;18.12;;;11.48;;
48122;SDS011;33907;47.426;18.906;2023-04-06T06:22:43;16.55;;;10.93;;
48122;SDS011;33907;47.426;18.906;2023-04-06T06:25:11;20.90;;;12.20;;
48122;SDS011;33907;47.426;18.906;2023-04-06T06:27:38;20.17;;;11.50;;
48122;SDS011;33907;47.426;18.906;2023-04-06T06:30:06;20.92;;;11.75;;
48122;SDS011;33907;47.426;18.906;2023-04-06T06:32:37;20.20;;;12.82;;
48122;SDS011;33907;47.426;18.906;2023-04-06T06:35:05;21.10;;;11.68;;
48122;SDS011;33907;47.426;18.906;2023-04-06T06:37:33;23.65;;;11.60;;
48122;SDS011;33907;47.426;18.906;2023-04-06T06:40:01;20.95;;;11.73;;
48122;SDS011;33907;47.426;18.906;2023-04-06T06:42:29;29.05;;;15.75;;
48122;SDS011;33907;47.426;18.906;2023-04-06T06:44:59;28.23;;;14.07;;
48122;SDS011;33907;47.426;18.906;2023-04-06T06:47:27;22.80;;;12.82;;
48122;SDS011;33907;47.426;18.906;2023-04-06T06:49:54;21.73;;;13.27;;
48122;SDS011;33907;47.426;18.906;2023-04-06T06:52:23;79.78;;;31.27;;
48122;SDS011;33907;47.426;18.906;2023-04-06T06:54:51;25.40;;;14.52;;
48122;SDS011;33907;47.426;18.906;2023-04-06T06:57:23;32.67;;;14.32;;
48122;SDS011;33907;47.426;18.906;2023-04-06T06:59:51;23.05;;;13.52;;
48122;SDS011;33907;47.426;18.906;2023-04-06T07:02:19;22.58;;;13.80;;
48122;SDS011;33907;47.426;18.906;2023-04-06T07:04:49;22.77;;;15.10;;
48122;SDS011;33907;47.426;18.906;2023-04-06T07:07:17;22.80;;;13.60;;
48122;SDS011;33907;47.426;18.906;2023-04-06T07:09:46;20.98;;;13.62;;
48122;SDS011;33907;47.426;18.906;2023-04-06T07:12:13;22.60;;;13.62;;
48122;SDS011;33907;47.426;18.906;2023-04-06T07:14:42;23.27;;;13.27;;
48122;SDS011;33907;47.426;18.906;2023-04-06T07:17:12;18.67;;;12.77;;
48122;SDS011;33907;47.426;18.906;2023-04-06T07:19:39;23.87;;;14.73;;
48122;SDS011;33907;47.426;18.906;2023-04-06T07:22:08;18.58;;;12.50;;
48122;SDS011;33907;47.426;18.906;2023-04-06T07:24:35;19.30;;;11.82;;
48122;SDS011;33907;47.426;18.906;2023-04-06T07:27:03;18.42;;;11.95;;
48122;SDS011;33907;47.426;18.906;2023-04-06T07:29:31;21.33;;;12.65;;
48122;SDS011;33907;47.426;18.906;2023-04-06T07:31:59;21.67;;;11.20;;
48122;SDS011;33907;47.426;18.906;2023-04-06T07:34:27;21.10;;;11.93;;
48122;SDS011;33907;47.426;18.906;2023-04-06T07:36:55;19.45;;;11.98;;
48122;SDS011;33907;47.426;18.906;2023-04-06T07:39:24;18.52;;;11.77;;
48122;SDS011;33907;47.426;18.906;2023-04-06T07:41:53;24.83;;;11.85;;
48122;SDS011;33907;47.426;18.906;2023-04-06T07:44:21;20.95;;;12.27;;
48122;SDS011;33907;47.426;18.906;2023-04-06T07:46:49;22.87;;;12.77;;
48122;SDS011;33907;47.426;18.906;2023-04-06T07:49:17;20.90;;;11.48;;
48122;SDS011;33907;47.426;18.906;2023-04-06T07:51:46;21.12;;;10.57;;
48122;SDS011;33907;47.426;18.906;2023-04-06T07:54:13;22.33;;;12.27;;
48122;SDS011;33907;47.426;18.906;2023-04-06T07:56:41;20.85;;;11.75;;
48122;SDS011;33907;47.426;18.906;2023-04-06T07:59:08;20.58;;;11.45;;
48122;SDS011;33907;47.426;18.906;2023-04-06T08:01:38;18.95;;;11.20;;
48122;SDS011;33907;47.426;18.906;2023-04-06T08:04:05;20.45;;;11.45;;
48122;SDS011;33907;47.426;18.906;2023-04-06T08:06:34;23.65;;;12.15;;
48122;SDS011;33907;47.426;18.906;2023-04-06T08:09:03;19.77;;;11.75;;
48122;SDS011;33907;47.426;18.906;2023-04-06T08:11:31;18.42;;;11.82;;
48122;SDS011;33907;47.426;18.906;2023-04-06T08:13:58;18.40;;;11.12;;
48122;SDS011;33907;47.426;18.906;2023-04-06T08:16:25;18.05;;;11.80;;
48122;SDS011;33907;47.426;18.906;2023-04-06T08:18:53;20.17;;;11.18;;
48122;SDS011;33907;47.426;18.906;2023-04-06T08:21:21;18.83;;;12.40;;
48122;SDS011;33907;47.426;18.906;2023-04-06T08:23:48;15.77;;;10.70;;
48122;SDS011;33907;47.426;18.906;2023-04-06T08:26:16;17.58;;;11.80;;
48122;SDS011;33907;47.426;18.906;2023-04-06T08:28:43;17.67;;;11.30;;
48122;SDS011;33907;47.426;18.906;2023-04-06T08:31:13;20.65;;;11.93;;
48122;SDS011;33907;47.426;18.906;2023-04-06T08:33:40;20.45;;;11.55;;
48122;SDS011;33907;47.426;18.906;2023-04-06T08:36:13;20.37;;;12.15;;
48122;SDS011;33907;47.426;18.906;2023-04-06T08:38:41;20.05;;;11.75;;
48122;SDS011;33907;47.426;18.906;2023-04-06T08:41:10;19.70;;;12.23;;
48122;SDS011;33907;47.426;18.906;2023-04-06T08:43:43;20.62;;;11.23;;
48122;SDS011;33907;47.426;18.906;2023-04-06T08:46:12;14.82;;;10.02;;
48122;SDS011;33907;47.426;18.906;2023-04-06T08:48:40;21.83;;;11.55;;
48122;SDS011;33907;47.426;18.906;2023-04-06T08:51:09;17.92;;;11.27;;
48122;SDS011;33907;47.426;18.906;2023-04-06T08:53:37;17.23;;;10.73;;
48122;SDS011;33907;47.426;18.906;2023-04-06T08:56:05;18.15;;;11.30;;
48122;SDS011;33907;47.426;18.906;2023-04-06T08:58:34;19.10;;;12.00;;
48122;SDS011;33907;47.426;18.906;2023-04-06T09:01:08;18.90;;;11.35;;
48122;SDS011;33907;47.426;18.906;2023-04-06T09:03:39;18.05;;;11.60;;
48122;SDS011;33907;47.426;18.906;2023-04-06T09:06:08;17.10;;;10.30;;
48122;SDS011;33907;47.426;18.906;2023-04-06T09:08:38;19.92;;;10.68;;
48122;SDS011;33907;47.426;18.906;2023-04-06T09:11:07;17.33;;;10.15;;
48122;SDS011;33907;47.426;18.906;2023-04-06T09:13:45;15.43;;;9.98;;
48122;SDS011;33907;47.426;18.906;2023-04-06T09:16:14;16.27;;;10.15;;
48122;SDS011;33907;47.426;18.906;2023-04-06T09:18:42;18.87;;;10.05;;
48122;SDS011;33907;47.426;18.906;2023-04-06T09:21:10;16.25;;;9.13;;
48122;SDS011;33907;47.426;18.906;2023-04-06T09:23:38;14.68;;;7.93;;
48122;SDS011;33907;47.426;18.906;2023-04-06T09:26:10;12.70;;;7.78;;
48122;SDS011;33907;47.426;18.906;2023-04-06T09:31:11;15.60;;;7.47;;
48122;SDS011;33907;47.426;18.906;2023-04-06T09:33:44;12.27;;;7.32;;
48122;SDS011;33907;47.426;18.906;2023-04-06T09:36:12;15.07;;;8.15;;
48122;SDS011;33907;47.426;18.906;2023-04-06T09:38:55;12.70;;;7.72;;
48122;SDS011;33907;47.426;18.906;2023-04-06T09:44:01;11.82;;;7.30;;
48122;SDS011;33907;47.426;18.906;2023-04-06T09:46:33;17.08;;;9.18;;
48122;SDS011;33907;47.426;18.906;2023-04-06T09:49:21;14.32;;;8.23;;
48122;SDS011;33907;47.426;18.906;2023-04-06T09:51:54;12.73;;;7.93;;
48122;SDS011;33907;47.426;18.906;2023-04-06T09:54:24;25.98;;;7.87;;
48122;SDS011;33907;47.426;18.906;2023-04-06T09:59:33;15.23;;;8.88;;
48122;SDS011;33907;47.426;18.906;2023-04-06T10:02:08;14.77;;;8.18;;
48122;SDS011;33907;47.426;18.906;2023-04-06T10:04:43;16.90;;;9.17;;
48122;SDS011;33907;47.426;18.906;2023-04-06T10:07:13;15.70;;;8.45;;
48122;SDS011;33907;47.426;18.906;2023-04-06T10:09:42;17.17;;;8.98;;
48122;SDS011;33907;47.426;18.906;2023-04-06T10:12:12;19.95;;;9.23;;
48122;SDS011;33907;47.426;18.906;2023-04-06T10:14:40;19.77;;;7.70;;
48122;SDS011;33907;47.426;18.906;2023-04-06T10:17:08;12.60;;;7.15;;
48122;SDS011;33907;47.426;18.906;2023-04-06T10:19:44;16.55;;;8.90;;
48122;SDS011;33907;47.426;18.906;2023-04-06T10:22:15;13.52;;;7.75;;
48122;SDS011;33907;47.426;18.906;2023-04-06T10:24:48;12.73;;;7.72;;
48122;SDS011;33907;47.426;18.906;2023-04-06T10:27:15;16.02;;;7.50;;
48122;SDS011;33907;47.426;18.906;2023-04-06T10:29:43;12.52;;;8.23;;
48122;SDS011;33907;47.426;18.906;2023-04-06T10:32:17;13.25;;;8.68;;
48122;SDS011;33907;47.426;18.906;2023-04-06T10:34:44;11.30;;;6.68;;
48122;SDS011;33907;47.426;18.906;2023-04-06T10:37:15;12.73;;;6.82;;
48122;SDS011;33907;47.426;18.906;2023-04-06T10:39:53;13.80;;;8.45;;
48122;SDS011;33907;47.426;18.906;2023-04-06T10:42:35;14.40;;;7.35;;
48122;SDS011;33907;47.426;18.906;2023-04-06T10:45:07;11.90;;;7.70;;
48122;SDS011;33907;47.426;18.906;2023-04-06T10:47:46;11.98;;;6.97;;
48122;SDS011;33907;47.426;18.906;2023-04-06T10:50:14;11.95;;;7.40;;
48122;SDS011;33907;47.426;18.906;2023-04-06T10:52:44;13.77;;;7.68;;
48122;SDS011;33907;47.426;18.906;2023-04-06T10:55:13;14.00;;;7.15;;
48122;SDS011;33907;47.426;18.906;2023-04-06T10:57:42;15.32;;;7.70;;
48122;SDS011;33907;47.426;18.906;2023-04-06T11:00:11;13.02;;;7.05;;
48122;SDS011;33907;47.426;18.906;2023-04-06T11:02:39;11.18;;;7.03;;
48122;SDS011;33907;47.426;18.906;2023-04-06T11:05:07;14.02;;;7.25;;
48122;SDS011;33907;47.426;18.906;2023-04-06T11:07:34;12.65;;;7.40;;
48122;SDS011;33907;47.426;18.906;2023-04-06T11:10:02;11.02;;;7.07;;
48122;SDS011;33907;47.426;18.906;2023-04-06T11:12:44;16.50;;;8.38;;
48122;SDS011;33907;47.426;18.906;2023-04-06T11:15:12;17.23;;;8.80;;
48122;SDS011;33907;47.426;18.906;2023-04-06T11:17:39;13.40;;;8.38;;
48122;SDS011;33907;47.426;18.906;2023-04-06T11:20:09;14.80;;;8.35;;
48122;SDS011;33907;47.426;18.906;2023-04-06T11:22:48;13.88;;;8.65;;
48122;SDS011;33907;47.426;18.906;2023-04-06T11:25:17;15.80;;;7.65;;
48122;SDS011;33907;47.426;18.906;2023-04-06T11:27:46;14.98;;;8.43;;
48122;SDS011;33907;47.426;18.906;2023-04-06T11:30:14;14.10;;;9.68;;
48122;SDS011;33907;47.426;18.906;2023-04-06T11:32:43;16.85;;;8.10;;
48122;SDS011;33907;47.426;18.906;2023-04-06T11:35:13;15.68;;;8.50;;
48122;SDS011;33907;47.426;18.906;2023-04-06T11:37:48;13.48;;;8.02;;
48122;SDS011;33907;47.426;18.906;2023-04-06T11:40:22;17.08;;;8.43;;
48122;SDS011;33907;47.426;18.906;2023-04-06T11:42:55;15.65;;;7.50;;
48122;SDS011;33907;47.426;18.906;2023-04-06T11:45:23;12.15;;;7.45;;
48122;SDS011;33907;47.426;18.906;2023-04-06T11:47:59;11.45;;;6.95;;
48122;SDS011;33907;47.426;18.906;2023-04-06T11:52:59;13.62;;;7.12;;
48122;SDS011;33907;47.426;18.906;2023-04-06T11:55:28;12.25;;;6.87;;
48122;SDS011;33907;47.426;18.906;2023-04-06T11:57:58;12.88;;;6.57;;
48122;SDS011;33907;47.426;18.906;2023-04-06T12:00:26;10.13;;;7.12;;
48122;SDS011;33907;47.426;18.906;2023-04-06T12:02:55;11.35;;;6.62;;
48122;SDS011;33907;47.426;18.906;2023-04-06T12:05:23;13.93;;;7.28;;
48122;SDS011;33907;47.426;18.906;2023-04-06T12:07:52;13.43;;;6.80;;
48122;SDS011;33907;47.426;18.906;2023-04-06T12:10:19;12.50;;;7.12;;
48122;SDS011;33907;47.426;18.906;2023-04-06T12:12:47;14.75;;;6.35;;
48122;SDS011;33907;47.426;18.906;2023-04-06T12:15:14;12.25;;;6.43;;
48122;SDS011;33907;47.426;18.906;2023-04-06T12:17:42;14.68;;;7.22;;
48122;SDS011;33907;47.426;18.906;2023-04-06T12:20:10;12.15;;;7.70;;
48122;SDS011;33907;47.426;18.906;2023-04-06T12:22:51;15.48;;;8.40;;
48122;SDS011;33907;47.426;18.906;2023-04-06T12:25:19;11.15;;;6.93;;
48122;SDS011;33907;47.426;18.906;2023-04-06T12:27:47;12.65;;;8.30;;
48122;SDS011;33907;47.426;18.906;2023-04-06T12:30:14;13.05;;;7.05;;
48122;SDS011;33907;47.426;18.906;2023-04-06T12:32:42;11.48;;;7.60;;
48122;SDS011;33907;47.426;18.906;2023-04-06T12:35:09;13.30;;;7.80;;
48122;SDS011;33907;47.426;18.906;2023-04-06T12:37:39;12.05;;;7.20;;
48122;SDS011;33907;47.426;18.906;2023-04-06T12:40:07;11.60;;;7.20;;
48122;SDS011;33907;47.426;18.906;2023-04-06T12:42:38;12.77;;;8.10;;
48122;SDS011;33907;47.426;18.906;2023-04-06T12:45:08;11.93;;;6.85;;
48122;SDS011;33907;47.426;18.906;2023-04-06T12:47:35;14.40;;;7.25;;
48122;SDS011;33907;47.426;18.906;2023-04-06T12:50:04;12.90;;;7.68;;
48122;SDS011;33907;47.426;18.906;2023-04-06T12:52:33;13.10;;;7.12;;
48122;SDS011;33907;47.426;18.906;2023-04-06T12:55:02;11.68;;;7.72;;
48122;SDS011;33907;47.426;18.906;2023-04-06T12:57:30;12.88;;;7.00;;
48122;SDS011;33907;47.426;18.906;2023-04-06T12:59:58;15.60;;;8.10;;
48122;SDS011;33907;47.426;18.906;2023-04-06T13:02:25;15.88;;;8.55;;
48122;SDS011;33907;47.426;18.906;2023-04-06T13:04:54;13.30;;;7.12;;
48122;SDS011;33907;47.426;18.906;2023-04-06T13:07:23;11.75;;;7.07;;
48122;SDS011;33907;47.426;18.906;2023-04-06T13:09:51;10.68;;;7.20;;
48122;SDS011;33907;47.426;18.906;2023-04-06T13:12:18;11.55;;;7.53;;
48122;SDS011;33907;47.426;18.906;2023-04-06T13:14:46;11.27;;;6.47;;
48122;SDS011;33907;47.426;18.906;2023-04-06T13:17:17;10.93;;;7.15;;
48122;SDS011;33907;47.426;18.906;2023-04-06T13:19:45;17.00;;;7.85;;
48122;SDS011;33907;47.426;18.906;2023-04-06T13:22:12;13.20;;;7.10;;
48122;SDS011;33907;47.426;18.906;2023-04-06T13:24:40;14.55;;;7.20;;
48122;SDS011;33907;47.426;18.906;2023-04-06T13:27:07;17.67;;;7.20;;
48122;SDS011;33907;47.426;18.906;2023-04-06T13:29:35;12.57;;;7.18;;
48122;SDS011;33907;47.426;18.906;2023-04-06T13:32:02;10.95;;;6.78;;
48122;SDS011;33907;47.426;18.906;2023-04-06T13:34:31;14.63;;;7.60;;
48122;SDS011;33907;47.426;18.906;2023-04-06T13:36:58;10.32;;;6.18;;
48122;SDS011;33907;47.426;18.906;2023-04-06T13:39:26;11.15;;;6.60;;
48122;SDS011;33907;47.426;18.906;2023-04-06T13:41:54;13.65;;;6.50;;
48122;SDS011;33907;47.426;18.906;2023-04-06T13:44:23;14.80;;;6.18;;
48122;SDS011;33907;47.426;18.906;2023-04-06T13:46:52;16.60;;;7.72;;
48122;SDS011;33907;47.426;18.906;2023-04-06T13:49:20;15.80;;;6.40;;
48122;SDS011;33907;47.426;18.906;2023-04-06T13:51:48;16.77;;;6.72;;
48122;SDS011;33907;47.426;18.906;2023-04-06T13:54:15;12.70;;;7.65;;
48122;SDS011;33907;47.426;18.906;2023-04-06T13:56:43;13.55;;;7.47;;
48122;SDS011;33907;47.426;18.906;2023-04-06T13:59:10;12.80;;;6.65;;
48122;SDS011;33907;47.426;18.906;2023-04-06T14:01:38;10.52;;;6.65;;
48122;SDS011;33907;47.426;18.906;2023-04-06T14:04:06;12.55;;;6.75;;
48122;SDS011;33907;47.426;18.906;2023-04-06T14:06:33;11.65;;;6.37;;
48122;SDS011;33907;47.426;18.906;2023-04-06T14:09:01;13.07;;;7.65;;
48122;SDS011;33907;47.426;18.906;2023-04-06T14:11:29;10.98;;;6.55;;
48122;SDS011;33907;47.426;18.906;2023-04-06T14:13:56;12.60;;;7.37;;
48122;SDS011;33907;47.426;18.906;2023-04-06T14:16:24;13.18;;;8.88;;
48122;SDS011;33907;47.426;18.906;2023-04-06T14:18:52;16.95;;;9.60;;
48122;SDS011;33907;47.426;18.906;2023-04-06T14:21:22;19.08;;;9.32;;
48122;SDS011;33907;47.426;18.906;2023-04-06T14:23:49;14.18;;;7.85;;
48122;SDS011;33907;47.426;18.906;2023-04-06T14:26:17;16.17;;;8.65;;
48122;SDS011;33907;47.426;18.906;2023-04-06T14:28:44;39.70;;;25.37;;
48122;SDS011;33907;47.426;18.906;2023-04-06T14:31:14;17.98;;;9.25;;
48122;SDS011;33907;47.426;18.906;2023-04-06T14:33:43;30.70;;;13.07;;
48122;SDS011;33907;47.426;18.906;2023-04-06T14:36:12;13.73;;;7.43;;
48122;SDS011;33907;47.426;18.906;2023-04-06T14:38:40;13.32;;;7.18;;